Union Ranger — SYMB — position and weather

sailwx.info

Track history (hours):
 
Tides and Currents Weather Stations Pressure Air Temp Water Temp Dewpoint Dewpoint Depression Visibility Wind Speed Wind Dir Waves Ship Positions

Union Ranger

Last reported at 2016-Jun-28 07:09 UTC. Time now 2016-Jul-02 09:39 UTC.
Position N 39°52' E 025°51'.

Length 185 m; draft 8.5 m.

Type: Ship. MMSI: 240070000.

Date/timePositionNaut miles runAvg speedWind from/ knotsBaromVisibWave heightAir tempDewpointWater temp
2016-Jun-28 07:09N 39°52' E 025°51'4 7.3
2016-Jun-28 06:33N 39°48' E 025°49'11512.1
2016-Jun-27 21:03N 38°05' E 024°43'812.1
2016-Jun-27 20:24N 37°59' E 024°38'1012.0
2016-Jun-27 19:33N 37°52' E 024°28'1212.0
2016-Jun-27 18:33N 37°44' E 024°17'1211.9
2016-Jun-27 17:33N 37°34' E 024°08'1212.3
2016-Jun-27 16:33N 37°24' E 023°60'1111.4
2016-Jun-27 15:33N 37°14' E 023°53'1211.5
2016-Jun-27 14:33N 37°05' E 023°44'1212.3
2016-Jun-27 13:33N 36°54' E 023°36'1312.4
2016-Jun-27 12:33N 36°44' E 023°28'1312.4
2016-Jun-27 11:32N 36°33' E 023°20'35211.3
2016-Jun-26 04:16N 36°31' E 016°02'2112.1
2016-Jun-26 02:33N 36°32' E 015°36'1212.0
2016-Jun-26 01:33N 36°33' E 015°21'1212.1
2016-Jun-26 00:33N 36°33' E 015°06'1212.1
2016-Jun-25 23:33N 36°35' E 014°51'1212.0
2016-Jun-25 22:33N 36°37' E 014°36'1212.4
2016-Jun-25 21:33N 36°39' E 014°21'1312.7
2016-Jun-25 20:33N 36°41' E 014°05'1313.0
2016-Jun-25 19:34N 36°44' E 013°50'1313.2
2016-Jun-25 18:33N 36°46' E 013°33'1313.2
2016-Jun-25 17:34N 36°49' E 013°17'1312.8
2016-Jun-25 16:33N 36°51' E 013°01'1212.3
2016-Jun-25 15:33N 36°53' E 012°46'1212.2
2016-Jun-25 14:33N 36°55' E 012°31'1212.1
2016-Jun-25 13:33N 36°57' E 012°16'10212.7
2016-Jun-25 05:30N 37°33' E 010°16'2512.6
2016-Jun-25 03:32N 37°30' E 009°44'1412.6
2016-Jun-25 02:23N 37°26' E 009°27'1112.7
2016-Jun-25 01:29N 37°23' E 009°13'15212.2
2016-Jun-24 13:04N 37°11' E 006°02'712.4
2016-Jun-24 12:29N 37°11' E 005°53'1312.3
2016-Jun-24 11:25N 37°10' E 005°37'3512.4
2016-Jun-24 08:33N 37°09' E 004°53'2912.0
2016-Jun-24 06:09N 37°07' E 004°17'1911.8
2016-Jun-24 04:33N 37°06' E 003°53'1211.9
2016-Jun-24 03:33N 37°04' E 003°38'1111.5
2016-Jun-24 02:33N 37°03' E 003°24'1111.1
2016-Jun-24 01:33N 37°01' E 003°10'1110.7
2016-Jun-24 00:33N 36°60' E 002°57'1111.4
2016-Jun-23 23:33N 36°58' E 002°43'1212.3
2016-Jun-23 22:33N 36°56' E 002°28'1312.6
2016-Jun-23 21:33N 36°54' E 002°12'1212.5
2016-Jun-23 20:33N 36°52' E 001°57'1212.1
2016-Jun-23 19:33N 36°50' E 001°42'1212.2
2016-Jun-23 18:33N 36°48' E 001°27'1212.1
2016-Jun-23 17:33N 36°47' E 001°12'1212.1
2016-Jun-23 16:33N 36°45' E 000°57'1211.8
2016-Jun-23 15:33N 36°43' E 000°42'1211.6
2016-Jun-23 14:33N 36°42' E 000°28'1111.4
2016-Jun-23 13:33N 36°40' E 000°14'1311.2
2016-Jun-23 12:24N 36°38' W 000°02'1111.8
2016-Jun-23 11:29N 36°36' W 000°16'1411.9
2016-Jun-23 10:19N 36°34' W 000°32'911.6
2016-Jun-23 09:33N 36°33' W 000°43'1312.1
2016-Jun-23 08:28N 36°31' W 000°60'1412.6
2016-Jun-23 07:21N 36°29' W 001°17'19212.2
2016-Jun-22 15:33N 36°00' W 005°12'1312.7
2016-Jun-22 14:33N 35°58' W 005°28'90 9.0
2016-Jun-22 04:30N 36°08' W 007°19'8510.7
2016-Jun-21 20:33N 36°30' W 009°00'1211.7
2016-Jun-21 19:33N 36°33' W 009°14'1111.3
2016-Jun-21 18:33N 36°41' W 009°25'1111.3
2016-Jun-21 17:33N 36°50' W 009°34'1211.8
2016-Jun-21 16:33N 37°01' W 009°37'1212.0
2016-Jun-21 15:33N 37°13' W 009°40'1212.2
2016-Jun-21 14:33N 37°25' W 009°44'1312.5
2016-Jun-21 13:33N 37°37' W 009°47'1312.6
2016-Jun-21 12:33N 37°49' W 009°51'1312.8
2016-Jun-21 11:33N 38°02' W 009°54'1312.8
2016-Jun-21 10:33N 38°14' W 009°58'1312.8
2016-Jun-21 09:33N 38°27' W 010°01'1212.4
2016-Jun-21 08:33N 38°39' W 010°05'1312.7
2016-Jun-21 07:33N 38°52' W 010°06'3812.8
2016-Jun-21 04:33N 39°30' W 010°06'3912.9
2016-Jun-21 01:30N 40°09' W 010°06'1212.3
2016-Jun-21 00:33N 40°21' W 010°06'1412.4
2016-Jun-20 23:27N 40°35' W 010°06'56011.6
2016-Jun-18 23:18N 49°11' W 005°02'1112.7
2016-Jun-18 22:25N 49°17' W 004°48'1112.9
2016-Jun-18 21:33N 49°22' W 004°32'1312.8
2016-Jun-18 20:33N 49°29' W 004°16'1312.4
2016-Jun-18 19:30N 49°35' W 003°58'1211.7
2016-Jun-18 18:31N 49°41' W 003°43'1111.0
2016-Jun-18 17:33N 49°47' W 003°29'1110.6
2016-Jun-18 16:33N 49°52' W 003°15'1111.1
2016-Jun-18 15:33N 49°58' W 003°00'1211.9
2016-Jun-18 14:33N 50°02' W 002°43'5813.8
2016-Jun-18 10:21N 50°17' W 001°15'3010.8
2016-Jun-18 07:33N 50°25' W 000°30'  
Track history (hours):
 
Tides and Currents Weather Stations Pressure Air Temp Water Temp Dewpoint Dewpoint Depression Visibility Wind Speed Wind Dir Waves Ship Positions

Union Ranger

Last reported at 2016-Jun-28 07:09 UTC. Time now 2016-Jul-02 09:39 UTC.
Position N 39°52' E 025°51'.

Length 185 m; draft 8.5 m.

Type: Ship. MMSI: 240070000.

Date/timePositionNaut miles runAvg speedWind from/ knotsBaromVisibWave heightAir tempDewpointWater temp
2016-Jun-28 07:09N 39°52' E 025°51'4 7.3
2016-Jun-28 06:33N 39°48' E 025°49'11512.1
2016-Jun-27 21:03N 38°05' E 024°43'812.1
2016-Jun-27 20:24N 37°59' E 024°38'1012.0
2016-Jun-27 19:33N 37°52' E 024°28'1212.0
2016-Jun-27 18:33N 37°44' E 024°17'1211.9
2016-Jun-27 17:33N 37°34' E 024°08'1212.3
2016-Jun-27 16:33N 37°24' E 023°60'1111.4
2016-Jun-27 15:33N 37°14' E 023°53'1211.5
2016-Jun-27 14:33N 37°05' E 023°44'1212.3
2016-Jun-27 13:33N 36°54' E 023°36'1312.4
2016-Jun-27 12:33N 36°44' E 023°28'1312.4
2016-Jun-27 11:32N 36°33' E 023°20'35211.3
2016-Jun-26 04:16N 36°31' E 016°02'2112.1
2016-Jun-26 02:33N 36°32' E 015°36'1212.0
2016-Jun-26 01:33N 36°33' E 015°21'1212.1
2016-Jun-26 00:33N 36°33' E 015°06'1212.1
2016-Jun-25 23:33N 36°35' E 014°51'1212.0
2016-Jun-25 22:33N 36°37' E 014°36'1212.4
2016-Jun-25 21:33N 36°39' E 014°21'1312.7
2016-Jun-25 20:33N 36°41' E 014°05'1313.0
2016-Jun-25 19:34N 36°44' E 013°50'1313.2
2016-Jun-25 18:33N 36°46' E 013°33'1313.2
2016-Jun-25 17:34N 36°49' E 013°17'1312.8
2016-Jun-25 16:33N 36°51' E 013°01'1212.3
2016-Jun-25 15:33N 36°53' E 012°46'1212.2
2016-Jun-25 14:33N 36°55' E 012°31'1212.1
2016-Jun-25 13:33N 36°57' E 012°16'10212.7
2016-Jun-25 05:30N 37°33' E 010°16'2512.6
2016-Jun-25 03:32N 37°30' E 009°44'1412.6
2016-Jun-25 02:23N 37°26' E 009°27'1112.7
2016-Jun-25 01:29N 37°23' E 009°13'15212.2
2016-Jun-24 13:04N 37°11' E 006°02'712.4
2016-Jun-24 12:29N 37°11' E 005°53'1312.3
2016-Jun-24 11:25N 37°10' E 005°37'3512.4
2016-Jun-24 08:33N 37°09' E 004°53'2912.0
2016-Jun-24 06:09N 37°07' E 004°17'1911.8
2016-Jun-24 04:33N 37°06' E 003°53'1211.9
2016-Jun-24 03:33N 37°04' E 003°38'1111.5
2016-Jun-24 02:33N 37°03' E 003°24'1111.1
2016-Jun-24 01:33N 37°01' E 003°10'1110.7
2016-Jun-24 00:33N 36°60' E 002°57'1111.4
2016-Jun-23 23:33N 36°58' E 002°43'1212.3
2016-Jun-23 22:33N 36°56' E 002°28'1312.6
2016-Jun-23 21:33N 36°54' E 002°12'1212.5
2016-Jun-23 20:33N 36°52' E 001°57'1212.1
2016-Jun-23 19:33N 36°50' E 001°42'1212.2
2016-Jun-23 18:33N 36°48' E 001°27'1212.1
2016-Jun-23 17:33N 36°47' E 001°12'1212.1
2016-Jun-23 16:33N 36°45' E 000°57'1211.8
2016-Jun-23 15:33N 36°43' E 000°42'1211.6
2016-Jun-23 14:33N 36°42' E 000°28'1111.4
2016-Jun-23 13:33N 36°40' E 000°14'1311.2
2016-Jun-23 12:24N 36°38' W 000°02'1111.8
2016-Jun-23 11:29N 36°36' W 000°16'1411.9
2016-Jun-23 10:19N 36°34' W 000°32'911.6
2016-Jun-23 09:33N 36°33' W 000°43'1312.1
2016-Jun-23 08:28N 36°31' W 000°60'1412.6
2016-Jun-23 07:21N 36°29' W 001°17'19212.2
2016-Jun-22 15:33N 36°00' W 005°12'1312.7
2016-Jun-22 14:33N 35°58' W 005°28'90 9.0
2016-Jun-22 04:30N 36°08' W 007°19'8510.7
2016-Jun-21 20:33N 36°30' W 009°00'1211.7
2016-Jun-21 19:33N 36°33' W 009°14'1111.3
2016-Jun-21 18:33N 36°41' W 009°25'1111.3
2016-Jun-21 17:33N 36°50' W 009°34'1211.8
2016-Jun-21 16:33N 37°01' W 009°37'1212.0
2016-Jun-21 15:33N 37°13' W 009°40'1212.2
2016-Jun-21 14:33N 37°25' W 009°44'1312.5
2016-Jun-21 13:33N 37°37' W 009°47'1312.6
2016-Jun-21 12:33N 37°49' W 009°51'1312.8
2016-Jun-21 11:33N 38°02' W 009°54'1312.8
2016-Jun-21 10:33N 38°14' W 009°58'1312.8
2016-Jun-21 09:33N 38°27' W 010°01'1212.4
2016-Jun-21 08:33N 38°39' W 010°05'1312.7
2016-Jun-21 07:33N 38°52' W 010°06'3812.8
2016-Jun-21 04:33N 39°30' W 010°06'3912.9
2016-Jun-21 01:30N 40°09' W 010°06'1212.3
2016-Jun-21 00:33N 40°21' W 010°06'1412.4
2016-Jun-20 23:27N 40°35' W 010°06'56011.6
2016-Jun-18 23:18N 49°11' W 005°02'1112.7
2016-Jun-18 22:25N 49°17' W 004°48'1112.9
2016-Jun-18 21:33N 49°22' W 004°32'1312.8
2016-Jun-18 20:33N 49°29' W 004°16'1312.4
2016-Jun-18 19:30N 49°35' W 003°58'1211.7
2016-Jun-18 18:31N 49°41' W 003°43'1111.0
2016-Jun-18 17:33N 49°47' W 003°29'1110.6
2016-Jun-18 16:33N 49°52' W 003°15'1111.1
2016-Jun-18 15:33N 49°58' W 003°00'1211.9
2016-Jun-18 14:33N 50°02' W 002°43'5813.8
2016-Jun-18 10:21N 50°17' W 001°15'3010.8
2016-Jun-18 07:33N 50°25' W 000°30'  

Dump ship's entire track history